sensor_id;sensor_type;location;lat;lon;timestamp;pressure;altitude;pressure_sealevel;temperature;humidity
68456;BME280;55437;55.046;38.838;2023-03-20T00:02:14;100537.81;;;4.22;53.88
68456;BME280;55437;55.046;38.838;2023-03-20T00:04:42;100539.50;;;4.23;53.67
68456;BME280;55437;55.046;38.838;2023-03-20T00:07:09;100536.13;;;4.27;53.90
68456;BME280;55437;55.046;38.838;2023-03-20T00:10:03;100535.31;;;4.31;54.14
68456;BME280;55437;55.046;38.838;2023-03-20T00:12:55;100526.78;;;4.23;54.08
68456;BME280;55437;55.046;38.838;2023-03-20T00:15:30;100525.06;;;4.16;54.27
68456;BME280;55437;55.046;38.838;2023-03-20T00:18:22;100514.75;;;3.86;54.15
68456;BME280;55437;55.046;38.838;2023-03-20T00:20:50;100514.63;;;3.69;55.11
68456;BME280;55437;55.046;38.838;2023-03-20T00:23:18;100513.69;;;3.56;55.28
68456;BME280;55437;55.046;38.838;2023-03-20T00:25:45;100511.97;;;3.52;55.30
68456;BME280;55437;55.046;38.838;2023-03-20T00:31:00;100513.84;;;3.78;54.94
68456;BME280;55437;55.046;38.838;2023-03-20T00:33:30;100506.28;;;3.88;54.89
68456;BME280;55437;55.046;38.838;2023-03-20T00:35:57;100511.41;;;3.96;54.45
68456;BME280;55437;55.046;38.838;2023-03-20T00:38:24;100508.88;;;4.01;54.45
68456;BME280;55437;55.046;38.838;2023-03-20T00:40:50;100497.94;;;4.08;54.70
68456;BME280;55437;55.046;38.838;2023-03-20T00:43:17;100512.34;;;4.10;54.58
68456;BME280;55437;55.046;38.838;2023-03-20T00:45:45;100505.56;;;4.14;54.30
68456;BME280;55437;55.046;38.838;2023-03-20T00:48:13;100504.69;;;4.06;54.25
68456;BME280;55437;55.046;38.838;2023-03-20T00:50:40;100510.63;;;4.08;54.62
68456;BME280;55437;55.046;38.838;2023-03-20T00:53:24;100503.00;;;4.12;54.69
68456;BME280;55437;55.046;38.838;2023-03-20T00:55:50;100500.50;;;4.15;54.61
68456;BME280;55437;55.046;38.838;2023-03-20T00:58:16;100490.34;;;4.17;54.55
68456;BME280;55437;55.046;38.838;2023-03-20T01:00:45;100500.53;;;4.20;54.31
68456;BME280;55437;55.046;38.838;2023-03-20T01:03:23;100504.75;;;4.19;54.16
68456;BME280;55437;55.046;38.838;2023-03-20T01:06:00;100492.06;;;4.19;54.34
68456;BME280;55437;55.046;38.838;2023-03-20T01:08:27;100491.22;;;4.25;54.32
68456;BME280;55437;55.046;38.838;2023-03-20T01:10:54;100490.38;;;4.26;54.16
68456;BME280;55437;55.046;38.838;2023-03-20T01:13:24;100492.06;;;4.27;54.51
68456;BME280;55437;55.046;38.838;2023-03-20T01:15:52;100492.09;;;4.33;54.53
68456;BME280;55437;55.046;38.838;2023-03-20T01:18:20;100487.03;;;4.33;54.25
68456;BME280;55437;55.046;38.838;2023-03-20T01:20:47;100486.16;;;4.37;54.18
68456;BME280;55437;55.046;38.838;2023-03-20T01:23:14;100486.19;;;4.42;54.25
68456;BME280;55437;55.046;38.838;2023-03-20T01:25:40;100483.66;;;4.40;54.40
68456;BME280;55437;55.046;38.838;2023-03-20T01:28:17;100486.19;;;4.40;54.27
68456;BME280;55437;55.046;38.838;2023-03-20T01:30:46;100483.66;;;4.43;54.11
68456;BME280;55437;55.046;38.838;2023-03-20T01:33:37;100492.94;;;4.37;54.14
68456;BME280;55437;55.046;38.838;2023-03-20T01:36:03;100484.47;;;4.33;54.25
68456;BME280;55437;55.046;38.838;2023-03-20T01:38:29;100482.78;;;4.38;54.55
68456;BME280;55437;55.046;38.838;2023-03-20T01:41:05;100485.31;;;4.32;54.19
68456;BME280;55437;55.046;38.838;2023-03-20T01:43:34;100486.97;;;4.24;54.72
68456;BME280;55437;55.046;38.838;2023-03-20T01:46:25;100483.59;;;4.25;54.79
68456;BME280;55437;55.046;38.838;2023-03-20T01:51:51;100478.47;;;4.17;54.80
68456;BME280;55437;55.046;38.838;2023-03-20T01:59:33;100475.91;;;4.11;54.65
68456;BME280;55437;55.046;38.838;2023-03-20T02:02:01;100474.22;;;4.12;54.68
68456;BME280;55437;55.046;38.838;2023-03-20T02:04:35;100465.72;;;4.11;55.01
68456;BME280;55437;55.046;38.838;2023-03-20T02:07:09;100470.88;;;4.22;54.71
68456;BME280;55437;55.046;38.838;2023-03-20T02:09:54;100476.84;;;4.30;54.60
68456;BME280;55437;55.046;38.838;2023-03-20T02:12:32;100473.47;;;4.37;54.42
68456;BME280;55437;55.046;38.838;2023-03-20T02:15:03;100477.72;;;4.41;54.31
68456;BME280;55437;55.046;38.838;2023-03-20T02:17:52;100466.72;;;4.42;54.56
68456;BME280;55437;55.046;38.838;2023-03-20T02:26:36;100454.72;;;4.11;55.23
68456;BME280;55437;55.046;38.838;2023-03-20T02:47:14;100452.16;;;4.11;55.67
68456;BME280;55437;55.046;38.838;2023-03-20T02:52:53;100446.28;;;4.10;55.73
68456;BME280;55437;55.046;38.838;2023-03-20T02:55:39;100448.78;;;4.04;55.75
68456;BME280;55437;55.046;38.838;2023-03-20T02:58:47;100449.63;;;4.12;55.71
68456;BME280;55437;55.046;38.838;2023-03-20T03:01:59;100448.00;;;4.20;55.82
68456;BME280;55437;55.046;38.838;2023-03-20T03:04:31;100453.09;;;4.20;55.69
68456;BME280;55437;55.046;38.838;2023-03-20T03:07:01;100444.59;;;4.23;55.72
68456;BME280;55437;55.046;38.838;2023-03-20T03:09:37;100443.75;;;4.25;55.85
68456;BME280;55437;55.046;38.838;2023-03-20T03:12:36;100438.69;;;4.25;55.70
68456;BME280;55437;55.046;38.838;2023-03-20T03:15:13;100445.44;;;4.23;55.75
68456;BME280;55437;55.046;38.838;2023-03-20T03:17:44;100440.38;;;4.25;55.69
68456;BME280;55437;55.046;38.838;2023-03-20T03:20:22;100443.81;;;4.31;55.53
68456;BME280;55437;55.046;38.838;2023-03-20T03:22:51;100435.34;;;4.34;55.41
68456;BME280;55437;55.046;38.838;2023-03-20T03:25:20;100428.53;;;4.28;55.47
68456;BME280;55437;55.046;38.838;2023-03-20T03:28:14;100434.44;;;4.26;55.57
68456;BME280;55437;55.046;38.838;2023-03-20T03:30:42;100431.91;;;4.24;55.81
68456;BME280;55437;55.046;38.838;2023-03-20T03:33:20;100422.59;;;4.26;56.03
68456;BME280;55437;55.046;38.838;2023-03-20T03:35:48;100426.00;;;4.33;55.67
68456;BME280;55437;55.046;38.838;2023-03-20T03:47:20;100429.38;;;4.35;55.95
68456;BME280;55437;55.046;38.838;2023-03-20T03:49:50;100428.53;;;4.36;55.95
68456;BME280;55437;55.046;38.838;2023-03-20T03:52:22;100429.41;;;4.40;56.32
68456;BME280;55437;55.046;38.838;2023-03-20T03:54:59;100428.59;;;4.44;56.22
68456;BME280;55437;55.046;38.838;2023-03-20T03:57:33;100426.03;;;4.45;56.19
68456;BME280;55437;55.046;38.838;2023-03-20T04:00:05;100426.88;;;4.43;56.27
68456;BME280;55437;55.046;38.838;2023-03-20T04:02:45;100425.19;;;4.51;55.96
68456;BME280;55437;55.046;38.838;2023-03-20T04:05:15;100432.00;;;4.55;55.90
68456;BME280;55437;55.046;38.838;2023-03-20T04:07:44;100425.22;;;4.55;55.84
68456;BME280;55437;55.046;38.838;2023-03-20T04:10:11;100431.13;;;4.54;55.55
68456;BME280;55437;55.046;38.838;2023-03-20T04:12:43;100430.28;;;4.51;55.74
68456;BME280;55437;55.046;38.838;2023-03-20T04:15:11;100427.75;;;4.54;55.89
68456;BME280;55437;55.046;38.838;2023-03-20T04:17:37;100420.97;;;4.57;55.77
68456;BME280;55437;55.046;38.838;2023-03-20T04:20:04;100420.97;;;4.54;55.63
68456;BME280;55437;55.046;38.838;2023-03-20T04:22:31;100428.59;;;4.56;55.60
68456;BME280;55437;55.046;38.838;2023-03-20T04:25:09;100420.13;;;4.60;55.34
68456;BME280;55437;55.046;38.838;2023-03-20T04:27:40;100421.81;;;4.61;55.24
68456;BME280;55437;55.046;38.838;2023-03-20T04:30:12;100424.38;;;4.62;55.21
68456;BME280;55437;55.046;38.838;2023-03-20T04:33:13;100426.91;;;4.61;55.11
68456;BME280;55437;55.046;38.838;2023-03-20T04:35:57;100418.41;;;4.50;55.63
68456;BME280;55437;55.046;38.838;2023-03-20T04:38:50;100426.03;;;4.48;55.61
68456;BME280;55437;55.046;38.838;2023-03-20T04:41:26;100419.25;;;4.44;55.64
68456;BME280;55437;55.046;38.838;2023-03-20T04:43:54;100420.06;;;4.29;55.91
68456;BME280;55437;55.046;38.838;2023-03-20T04:46:20;100414.97;;;4.20;56.15
68456;BME280;55437;55.046;38.838;2023-03-20T04:48:49;100413.28;;;4.22;56.36
68456;BME280;55437;55.046;38.838;2023-03-20T04:51:15;100412.44;;;4.31;56.14
68456;BME280;55437;55.046;38.838;2023-03-20T04:53:47;100418.41;;;4.34;56.10
68456;BME280;55437;55.046;38.838;2023-03-20T04:56:13;100417.53;;;4.31;56.04
68456;BME280;55437;55.046;38.838;2023-03-20T04:58:40;100415.84;;;4.31;55.99
68456;BME280;55437;55.046;38.838;2023-03-20T05:01:06;100424.28;;;4.26;56.26
68456;BME280;55437;55.046;38.838;2023-03-20T05:03:57;100424.25;;;4.18;56.30
68456;BME280;55437;55.046;38.838;2023-03-20T05:06:29;100420.03;;;4.26;56.24
68456;BME280;55437;55.046;38.838;2023-03-20T05:08:58;100420.09;;;4.45;56.06
68456;BME280;55437;55.046;38.838;2023-03-20T05:11:27;100426.06;;;4.57;55.62
68456;BME280;55437;55.046;38.838;2023-03-20T05:14:17;100417.59;;;4.64;55.57
68456;BME280;55437;55.046;38.838;2023-03-20T05:17:04;100422.69;;;4.64;55.40
68456;BME280;55437;55.046;38.838;2023-03-20T05:19:41;100423.50;;;4.51;55.58
68456;BME280;55437;55.046;38.838;2023-03-20T05:22:26;100420.97;;;4.45;55.76
68456;BME280;55437;55.046;38.838;2023-03-20T05:25:11;100424.31;;;4.47;55.70
68456;BME280;55437;55.046;38.838;2023-03-20T05:27:56;100423.50;;;4.47;55.65
68456;BME280;55437;55.046;38.838;2023-03-20T05:30:38;100422.69;;;4.57;55.34
68456;BME280;55437;55.046;38.838;2023-03-20T05:33:42;100423.53;;;4.69;55.16
68456;BME280;55437;55.046;38.838;2023-03-20T05:36:30;100421.84;;;4.81;54.85
68456;BME280;55437;55.046;38.838;2023-03-20T05:39:16;100419.31;;;4.70;54.64
68456;BME280;55437;55.046;38.838;2023-03-20T05:42:01;100421.00;;;4.76;54.56
68456;BME280;55437;55.046;38.838;2023-03-20T05:44:50;100416.75;;;4.85;54.28
68456;BME280;55437;55.046;38.838;2023-03-20T05:47:16;100417.63;;;4.90;53.96
68456;BME280;55437;55.046;38.838;2023-03-20T05:50:27;100426.97;;;5.06;53.64
68456;BME280;55437;55.046;38.838;2023-03-20T05:53:14;100430.34;;;5.13;53.33
68456;BME280;55437;55.046;38.838;2023-03-20T05:55:43;100417.59;;;5.10;53.28
68456;BME280;55437;55.046;38.838;2023-03-20T05:58:29;100426.09;;;5.15;53.21
68456;BME280;55437;55.046;38.838;2023-03-20T06:01:14;100415.91;;;5.18;53.14
68456;BME280;55437;55.046;38.838;2023-03-20T06:03:59;100413.34;;;5.21;52.87
68456;BME280;55437;55.046;38.838;2023-03-20T06:06:46;100408.28;;;5.11;52.90
68456;BME280;55437;55.046;38.838;2023-03-20T06:09:12;100407.44;;;5.02;52.96
68456;BME280;55437;55.046;38.838;2023-03-20T06:11:41;100420.16;;;5.08;52.92
68456;BME280;55437;55.046;38.838;2023-03-20T06:14:33;100416.75;;;5.25;52.63
68456;BME280;55437;55.046;38.838;2023-03-20T06:17:02;100414.19;;;5.22;52.61
68456;BME280;55437;55.046;38.838;2023-03-20T06:19:28;100415.91;;;5.21;52.51
68456;BME280;55437;55.046;38.838;2023-03-20T06:21:58;100415.88;;;5.20;52.38
68456;BME280;55437;55.046;38.838;2023-03-20T06:24:25;100415.06;;;5.19;52.21
68456;BME280;55437;55.046;38.838;2023-03-20T06:26:52;100407.44;;;5.18;52.48
68456;BME280;55437;55.046;38.838;2023-03-20T06:29:18;100411.63;;;5.32;52.58
68456;BME280;55437;55.046;38.838;2023-03-20T06:32:15;100414.16;;;5.51;51.85
68456;BME280;55437;55.046;38.838;2023-03-20T06:34:43;100411.59;;;5.61;51.55
68456;BME280;55437;55.046;38.838;2023-03-20T06:37:09;100414.13;;;5.58;51.36
68456;BME280;55437;55.046;38.838;2023-03-20T06:39:37;100398.00;;;5.64;51.43
68456;BME280;55437;55.046;38.838;2023-03-20T06:42:08;100401.34;;;5.78;51.10
68456;BME280;55437;55.046;38.838;2023-03-20T06:44:35;100403.00;;;5.94;50.86
68456;BME280;55437;55.046;38.838;2023-03-20T06:47:29;100398.75;;;6.01;50.63
68456;BME280;55437;55.046;38.838;2023-03-20T06:49:57;100396.22;;;5.92;50.71
68456;BME280;55437;55.046;38.838;2023-03-20T06:52:23;100397.91;;;5.96;50.55
68456;BME280;55437;55.046;38.838;2023-03-20T06:55:12;100403.00;;;6.03;50.51
68456;BME280;55437;55.046;38.838;2023-03-20T06:57:40;100395.31;;;6.05;50.39
68456;BME280;55437;55.046;38.838;2023-03-20T07:00:07;100394.44;;;6.06;50.15
68456;BME280;55437;55.046;38.838;2023-03-20T07:02:34;100391.88;;;6.12;50.20
68456;BME280;55437;55.046;38.838;2023-03-20T07:05:01;100394.38;;;6.23;49.98
68456;BME280;55437;55.046;38.838;2023-03-20T07:07:29;100395.16;;;6.35;49.53
68456;BME280;55437;55.046;38.838;2023-03-20T07:09:56;100392.56;;;6.41;49.44
68456;BME280;55437;55.046;38.838;2023-03-20T07:15:40;100393.31;;;6.54;48.89
68456;BME280;55437;55.046;38.838;2023-03-20T07:18:08;100397.59;;;6.52;49.30
68456;BME280;55437;55.046;38.838;2023-03-20T07:20:34;100397.66;;;6.46;49.27
68456;BME280;55437;55.046;38.838;2023-03-20T07:23:00;100394.28;;;6.39;49.59
68456;BME280;55437;55.046;38.838;2023-03-20T07:25:29;100395.94;;;6.46;49.38
68456;BME280;55437;55.046;38.838;2023-03-20T07:27:58;100391.63;;;6.53;49.47
68456;BME280;55437;55.046;38.838;2023-03-20T07:30:25;100395.84;;;6.60;49.37
68456;BME280;55437;55.046;38.838;2023-03-20T07:32:54;100392.31;;;6.76;49.02
68456;BME280;55437;55.046;38.838;2023-03-20T07:35:25;100394.81;;;6.87;48.95
68456;BME280;55437;55.046;38.838;2023-03-20T07:37:51;100389.63;;;6.93;48.64
68456;BME280;55437;55.046;38.838;2023-03-20T07:40:17;100383.56;;;7.06;48.63
68456;BME280;55437;55.046;38.838;2023-03-20T07:43:00;100391.09;;;7.21;48.46
68456;BME280;55437;55.046;38.838;2023-03-20T07:45:54;100392.78;;;7.22;48.01
68456;BME280;55437;55.046;38.838;2023-03-20T07:48:28;100391.88;;;7.27;47.82
68456;BME280;55437;55.046;38.838;2023-03-20T07:51:23;100393.47;;;7.37;47.41
68456;BME280;55437;55.046;38.838;2023-03-20T07:53:50;100394.31;;;7.39;47.43
68456;BME280;55437;55.046;38.838;2023-03-20T07:56:16;100393.41;;;7.46;47.18
68456;BME280;55437;55.046;38.838;2023-03-20T07:59:11;100384.88;;;7.48;47.01
68456;BME280;55437;55.046;38.838;2023-03-20T08:01:46;100389.91;;;7.54;46.62
68456;BME280;55437;55.046;38.838;2023-03-20T08:04:12;100396.59;;;7.63;46.43
68456;BME280;55437;55.046;38.838;2023-03-20T08:06:38;100394.84;;;7.71;45.96
68456;BME280;55437;55.046;38.838;2023-03-20T08:09:04;100395.56;;;7.81;46.00
68456;BME280;55437;55.046;38.838;2023-03-20T08:11:32;100390.47;;;7.79;45.63
68456;BME280;55437;55.046;38.838;2023-03-20T08:13:58;100378.53;;;7.81;45.79
68456;BME280;55437;55.046;38.838;2023-03-20T08:16:24;100390.34;;;7.90;45.88
68456;BME280;55437;55.046;38.838;2023-03-20T08:18:50;100388.50;;;8.01;45.63
68456;BME280;55437;55.046;38.838;2023-03-20T08:21:18;100379.75;;;8.17;45.14
68456;BME280;55437;55.046;38.838;2023-03-20T08:23:44;100374.50;;;8.28;44.83
68456;BME280;55437;55.046;38.838;2023-03-20T08:27:00;100372.97;;;8.16;44.96
68456;BME280;55437;55.046;38.838;2023-03-20T08:29:51;100367.75;;;8.22;45.06
68456;BME280;55437;55.046;38.838;2023-03-20T08:32:18;100366.84;;;8.26;44.63
68456;BME280;55437;55.046;38.838;2023-03-20T08:34:44;100368.53;;;8.27;44.88
68456;BME280;55437;55.046;38.838;2023-03-20T08:37:10;100373.56;;;8.35;44.71
68456;BME280;55437;55.046;38.838;2023-03-20T08:39:38;100371.03;;;8.34;44.73
68456;BME280;55437;55.046;38.838;2023-03-20T08:42:05;100365.78;;;8.43;44.21
68456;BME280;55437;55.046;38.838;2023-03-20T08:44:34;100364.94;;;8.42;43.97
68456;BME280;55437;55.046;38.838;2023-03-20T08:47:04;100364.09;;;8.43;43.86
68456;BME280;55437;55.046;38.838;2023-03-20T08:49:33;100357.94;;;8.55;43.75
68456;BME280;55437;55.046;38.838;2023-03-20T08:51:59;100362.91;;;8.62;43.48
68456;BME280;55437;55.046;38.838;2023-03-20T08:54:26;100356.81;;;8.70;43.35
68456;BME280;55437;55.046;38.838;2023-03-20T08:56:52;100358.50;;;8.72;43.19
68456;BME280;55437;55.046;38.838;2023-03-20T08:59:21;100360.13;;;8.78;43.40
68456;BME280;55437;55.046;38.838;2023-03-20T09:01:52;100360.78;;;8.89;43.13
68456;BME280;55437;55.046;38.838;2023-03-20T09:04:18;100358.91;;;8.98;43.04
68456;BME280;55437;55.046;38.838;2023-03-20T09:06:44;100359.78;;;8.97;42.78
68456;BME280;55437;55.046;38.838;2023-03-20T09:09:09;100356.41;;;8.95;42.60
68456;BME280;55437;55.046;38.838;2023-03-20T09:11:40;100357.31;;;8.93;42.65
68456;BME280;55437;55.046;38.838;2023-03-20T09:14:06;100355.63;;;8.92;42.58
68456;BME280;55437;55.046;38.838;2023-03-20T09:16:33;100351.56;;;8.80;42.49
68456;BME280;55437;55.046;38.838;2023-03-20T09:19:09;100357.66;;;8.72;42.39
68456;BME280;55437;55.046;38.838;2023-03-20T09:21:36;100356.00;;;8.69;42.64
68456;BME280;55437;55.046;38.838;2023-03-20T09:24:01;100349.03;;;8.79;42.36
68456;BME280;55437;55.046;38.838;2023-03-20T09:26:53;100352.25;;;8.90;42.45
68456;BME280;55437;55.046;38.838;2023-03-20T09:29:19;100348.84;;;8.88;42.39
68456;BME280;55437;55.046;38.838;2023-03-20T09:31:45;100349.69;;;8.88;42.26
68456;BME280;55437;55.046;38.838;2023-03-20T09:34:11;100353.09;;;8.89;42.38
68456;BME280;55437;55.046;38.838;2023-03-20T09:36:37;100349.66;;;8.91;42.35
68456;BME280;55437;55.046;38.838;2023-03-20T09:39:03;100344.50;;;8.93;42.43
68456;BME280;55437;55.046;38.838;2023-03-20T09:41:29;100342.81;;;8.92;42.76
68456;BME280;55437;55.046;38.838;2023-03-20T09:49:43;100337.69;;;8.92;42.98
68456;BME280;55437;55.046;38.838;2023-03-20T09:54:49;100334.94;;;9.04;42.76
68456;BME280;55437;55.046;38.838;2023-03-20T10:00:15;100327.03;;;9.15;42.99
68456;BME280;55437;55.046;38.838;2023-03-20T10:02:51;100324.56;;;9.10;42.84
68456;BME280;55437;55.046;38.838;2023-03-20T10:05:46;100325.44;;;9.09;43.04
68456;BME280;55437;55.046;38.838;2023-03-20T10:08:15;100318.69;;;9.05;43.51
68456;BME280;55437;55.046;38.838;2023-03-20T10:10:52;100315.19;;;9.08;43.41
68456;BME280;55437;55.046;38.838;2023-03-20T10:13:57;100320.44;;;9.03;43.54
68456;BME280;55437;55.046;38.838;2023-03-20T10:19:27;100313.72;;;8.96;43.79
68456;BME280;55437;55.046;38.838;2023-03-20T10:27:43;100308.97;;;8.75;44.15
68456;BME280;55437;55.046;38.838;2023-03-20T10:41:32;100293.03;;;8.57;44.64
68456;BME280;55437;55.046;38.838;2023-03-20T10:43:59;100287.97;;;8.56;44.71
68456;BME280;55437;55.046;38.838;2023-03-20T10:46:33;100288.69;;;8.62;44.79
68456;BME280;55437;55.046;38.838;2023-03-20T10:49:12;100292.91;;;8.66;44.79
68456;BME280;55437;55.046;38.838;2023-03-20T10:51:50;100288.69;;;8.62;45.05
68456;BME280;55437;55.046;38.838;2023-03-20T10:54:37;100292.22;;;8.57;45.16
68456;BME280;55437;55.046;38.838;2023-03-20T10:57:05;100287.97;;;8.54;45.01
68456;BME280;55437;55.046;38.838;2023-03-20T10:59:43;100285.44;;;8.53;44.87
68456;BME280;55437;55.046;38.838;2023-03-20T11:02:17;100277.84;;;8.48;44.82
68456;BME280;55437;55.046;38.838;2023-03-20T11:04:43;100282.13;;;8.46;44.83
68456;BME280;55437;55.046;38.838;2023-03-20T11:07:34;100283.06;;;8.42;44.84
68456;BME280;55437;55.046;38.838;2023-03-20T11:10:12;100273.72;;;8.40;44.87
68456;BME280;55437;55.046;38.838;2023-03-20T11:12:45;100272.03;;;8.37;44.93
68456;BME280;55437;55.046;38.838;2023-03-20T11:18:06;100260.94;;;8.40;44.92
68456;BME280;55437;55.046;38.838;2023-03-20T11:20:36;100257.38;;;8.47;44.86
68456;BME280;55437;55.046;38.838;2023-03-20T11:23:33;100248.72;;;8.57;44.54
68456;BME280;55437;55.046;38.838;2023-03-20T11:26:05;100253.06;;;8.50;44.69
68456;BME280;55437;55.046;38.838;2023-03-20T11:28:37;100240.25;;;8.52;44.67
68456;BME280;55437;55.046;38.838;2023-03-20T11:33:43;100237.56;;;8.58;44.23
68456;BME280;55437;55.046;38.838;2023-03-20T11:36:23;100233.44;;;8.51;44.29
68456;BME280;55437;55.046;38.838;2023-03-20T11:38:53;100240.19;;;8.55;43.94
68456;BME280;55437;55.046;38.838;2023-03-20T11:41:27;100235.84;;;8.58;43.95
68456;BME280;55437;55.046;38.838;2023-03-20T11:43:54;100232.56;;;8.53;43.99
68456;BME280;55437;55.046;38.838;2023-03-20T11:46:24;100234.34;;;8.47;43.90
68456;BME280;55437;55.046;38.838;2023-03-20T11:49:05;100221.09;;;8.22;44.25
68456;BME280;55437;55.046;38.838;2023-03-20T11:51:33;100227.09;;;8.21;44.16
68456;BME280;55437;55.046;38.838;2023-03-20T11:54:03;100225.41;;;8.20;44.25
68456;BME280;55437;55.046;38.838;2023-03-20T11:56:34;100219.56;;;8.10;44.76
68456;BME280;55437;55.046;38.838;2023-03-20T11:59:05;100212.81;;;8.08;44.41
68456;BME280;55437;55.046;38.838;2023-03-20T12:01:41;100216.16;;;8.10;44.52
68456;BME280;55437;55.046;38.838;2023-03-20T12:04:36;100201.59;;;8.15;44.24
68456;BME280;55437;55.046;38.838;2023-03-20T12:07:35;100199.97;;;8.11;44.00
68456;BME280;55437;55.046;38.838;2023-03-20T12:10:05;100195.81;;;8.04;44.20
68456;BME280;55437;55.046;38.838;2023-03-20T12:15:25;100181.59;;;7.87;44.57
68456;BME280;55437;55.046;38.838;2023-03-20T12:17:58;100178.97;;;7.90;44.54
68456;BME280;55437;55.046;38.838;2023-03-20T12:20:27;100184.94;;;7.91;44.43
68456;BME280;55437;55.046;38.838;2023-03-20T12:22:58;100181.59;;;7.87;44.51
68456;BME280;55437;55.046;38.838;2023-03-20T12:25:54;100178.00;;;7.97;44.69
68456;BME280;55437;55.046;38.838;2023-03-20T12:28:38;100177.00;;;8.08;44.31
68456;BME280;55437;55.046;38.838;2023-03-20T12:34:19;100171.94;;;8.05;44.94
68456;BME280;55437;55.046;38.838;2023-03-20T12:36:48;100173.53;;;8.10;44.91
68456;BME280;55437;55.046;38.838;2023-03-20T12:39:19;100166.78;;;8.08;45.08
68456;BME280;55437;55.046;38.838;2023-03-20T12:42:26;100173.72;;;8.00;44.82
68456;BME280;55437;55.046;38.838;2023-03-20T12:45:10;100176.38;;;7.95;44.80
68456;BME280;55437;55.046;38.838;2023-03-20T12:50:35;100165.13;;;8.05;45.17
68456;BME280;55437;55.046;38.838;2023-03-20T12:58:52;100147.97;;;8.10;44.82
68456;BME280;55437;55.046;38.838;2023-03-20T13:01:34;100135.28;;;8.06;44.93
68456;BME280;55437;55.046;38.838;2023-03-20T13:12:29;100125.00;;;8.09;45.11
68456;BME280;55437;55.046;38.838;2023-03-20T13:26:39;100110.16;;;7.78;45.38
68456;BME280;55437;55.046;38.838;2023-03-20T13:29:16;100111.13;;;7.73;45.89
68456;BME280;55437;55.046;38.838;2023-03-20T13:38:31;100111.81;;;7.82;45.76
68456;BME280;55437;55.046;38.838;2023-03-20T13:41:02;100111.00;;;7.79;45.93
68456;BME280;55437;55.046;38.838;2023-03-20T13:46:11;100115.28;;;7.78;46.35
68456;BME280;55437;55.046;38.838;2023-03-20T13:48:44;100113.50;;;7.83;46.46
68456;BME280;55437;55.046;38.838;2023-03-20T14:01:49;100109.56;;;7.61;46.97
68456;BME280;55437;55.046;38.838;2023-03-20T14:04:25;100108.78;;;7.57;46.77
68456;BME280;55437;55.046;38.838;2023-03-20T14:06:57;100107.13;;;7.53;47.14
68456;BME280;55437;55.046;38.838;2023-03-20T14:12:09;100098.81;;;7.41;47.50
68456;BME280;55437;55.046;38.838;2023-03-20T14:14:42;100097.16;;;7.37;47.49
68456;BME280;55437;55.046;38.838;2023-03-20T14:17:31;100099.78;;;7.34;47.31
68456;BME280;55437;55.046;38.838;2023-03-20T14:20:10;100089.66;;;7.26;47.35
68456;BME280;55437;55.046;38.838;2023-03-20T14:22:39;100087.09;;;7.26;47.79
68456;BME280;55437;55.046;38.838;2023-03-20T14:25:15;100092.13;;;7.32;47.54
68456;BME280;55437;55.046;38.838;2023-03-20T14:31:20;100084.50;;;7.29;48.07
68456;BME280;55437;55.046;38.838;2023-03-20T14:36:44;100082.16;;;7.15;48.24
68456;BME280;55437;55.046;38.838;2023-03-20T14:50:53;100077.94;;;7.13;48.66
68456;BME280;55437;55.046;38.838;2023-03-20T14:53:24;100079.59;;;7.15;48.42
68456;BME280;55437;55.046;38.838;2023-03-20T15:07:22;100070.44;;;7.01;48.96
68456;BME280;55437;55.046;38.838;2023-03-20T15:09:57;100064.69;;;6.88;48.91
68456;BME280;55437;55.046;38.838;2023-03-20T15:12:50;100064.72;;;6.85;49.19
68456;BME280;55437;55.046;38.838;2023-03-20T15:15:28;100066.41;;;6.86;49.13
68456;BME280;55437;55.046;38.838;2023-03-20T15:18:09;100070.69;;;6.84;49.49
68456;BME280;55437;55.046;38.838;2023-03-20T15:20:36;100063.84;;;6.86;49.65
68456;BME280;55437;55.046;38.838;2023-03-20T15:23:03;100060.44;;;6.87;49.40
68456;BME280;55437;55.046;38.838;2023-03-20T15:25:41;100061.31;;;6.86;49.47
68456;BME280;55437;55.046;38.838;2023-03-20T15:28:24;100057.06;;;6.86;49.34
68456;BME280;55437;55.046;38.838;2023-03-20T15:30:54;100060.41;;;6.88;49.25
68456;BME280;55437;55.046;38.838;2023-03-20T15:33:47;100053.69;;;6.83;49.26
68456;BME280;55437;55.046;38.838;2023-03-20T15:36:18;100055.41;;;6.79;49.61
68456;BME280;55437;55.046;38.838;2023-03-20T15:38:46;100051.25;;;6.75;49.31
68456;BME280;55437;55.046;38.838;2023-03-20T15:41:30;100055.53;;;6.73;49.28
68456;BME280;55437;55.046;38.838;2023-03-20T15:46:52;100057.28;;;6.67;49.34
68456;BME280;55437;55.046;38.838;2023-03-20T15:49:21;100056.44;;;6.68;49.61
68456;BME280;55437;55.046;38.838;2023-03-20T15:51:57;100053.00;;;6.70;49.48
68456;BME280;55437;55.046;38.838;2023-03-20T15:54:54;100058.06;;;6.73;49.57
68456;BME280;55437;55.046;38.838;2023-03-20T15:57:36;100052.13;;;6.73;49.75
68456;BME280;55437;55.046;38.838;2023-03-20T16:00:11;100052.03;;;6.77;49.59
68456;BME280;55437;55.046;38.838;2023-03-20T16:02:44;100050.31;;;6.79;49.77
68456;BME280;55437;55.046;38.838;2023-03-20T16:05:17;100047.75;;;6.79;50.23
68456;BME280;55437;55.046;38.838;2023-03-20T16:08:12;100058.84;;;6.77;49.91
68456;BME280;55437;55.046;38.838;2023-03-20T16:10:41;100045.31;;;6.73;49.91
68456;BME280;55437;55.046;38.838;2023-03-20T16:13:20;100047.03;;;6.70;49.87
68456;BME280;55437;55.046;38.838;2023-03-20T16:16:22;100048.84;;;6.63;50.21
68456;BME280;55437;55.046;38.838;2023-03-20T16:18:51;100048.91;;;6.56;50.37
68456;BME280;55437;55.046;38.838;2023-03-20T16:21:21;100044.69;;;6.53;50.38
68456;BME280;55437;55.046;38.838;2023-03-20T16:23:54;100047.19;;;6.58;50.24
68456;BME280;55437;55.046;38.838;2023-03-20T16:26:22;100048.81;;;6.65;50.20